Time;durP1;ratioP1;P1;durP2;ratioP2;P2;SDS_P1;SDS_P2;PMS_P1;PMS_P2;Temp;Humidity;BMP_temperature;BMP_pressure;BME280_temperature;BME280_humidity;BME280_pressure;Samples;Min_cycle;Max_cycle;Signal;HPM_P1;HPM_P2
2022/10/31 00:01:02;;;;;;;;;3.67;3.67;;;;;14.35;72.14;102030.13;5049586;28;9286;-64
2022/10/31 00:03:28;;;;;;;;;6.00;5.33;;;;;14.28;72.18;102023.75;5050511;28;9415;-64
2022/10/31 00:05:54;;;;;;;;;6.00;6.00;;;;;14.27;72.38;102027.50;5048968;28;9293;-65
2022/10/31 00:08:21;;;;;;;;;5.00;5.00;;;;;14.28;72.34;102026.47;5050495;28;9314;-65
2022/10/31 00:10:47;;;;;;;;;3.67;3.67;;;;;14.30;72.46;102028.97;5048250;28;9227;-64
2022/10/31 00:13:14;;;;;;;;;4.67;4.67;;;;;14.28;72.38;102023.75;5049674;28;9860;-65
2022/10/31 00:15:41;;;;;;;;;4.33;4.00;;;;;14.28;72.16;102026.47;5048990;28;9211;-66
2022/10/31 00:18:09;;;;;;;;;3.67;3.67;;;;;14.27;72.41;102022.09;5049917;28;9319;-66
2022/10/31 00:20:35;;;;;;;;;5.00;5.00;;;;;14.27;72.20;102018.56;5049752;28;9367;-65
2022/10/31 00:23:03;;;;;;;;;4.00;4.00;;;;;14.26;72.50;102020.44;5049541;28;9478;-65
2022/10/31 00:25:34;;;;;;;;;6.00;6.00;;;;;14.20;72.50;102036.56;5049537;28;9323;-66
2022/10/31 00:28:02;;;;;;;;;5.00;3.00;;;;;14.19;72.59;102038.44;5049916;28;9447;-65
2022/10/31 00:30:29;;;;;;;;;2.33;2.33;;;;;14.18;72.51;102038.63;5047819;28;9666;-65
2022/10/31 00:32:56;;;;;;;;;6.00;5.67;;;;;14.14;72.70;102032.78;5065030;28;9949;-65
2022/10/31 00:35:23;;;;;;;;;6.33;5.33;;;;;14.18;72.73;102034.06;5048655;28;9622;-64
2022/10/31 00:37:49;;;;;;;;;4.67;4.00;;;;;14.21;72.82;102036.38;5050035;28;9381;-66
2022/10/31 00:40:16;;;;;;;;;5.33;5.33;;;;;14.22;72.27;102037.22;5048177;28;9958;-66
2022/10/31 00:42:42;;;;;;;;;4.67;4.67;;;;;14.23;72.54;102038.91;5048390;28;9336;-66
2022/10/31 00:45:09;;;;;;;;;5.50;5.50;;;;;14.19;72.41;102032.19;5049689;28;9455;-65
2022/10/31 00:47:36;;;;;;;;;5.00;5.00;;;;;14.19;72.25;102027.63;5048219;28;9412;-67
2022/10/31 00:50:06;;;;;;;;;6.00;5.00;;;;;14.19;72.44;102022.19;5047632;28;9394;-64
2022/10/31 00:52:33;;;;;;;;;5.67;5.67;;;;;14.19;72.16;102024.91;5049527;28;9394;-65
2022/10/31 00:55:00;;;;;;;;;6.33;6.33;;;;;14.16;72.58;102025.28;5044333;28;9255;-65
2022/10/31 00:57:26;;;;;;;;;4.00;4.00;;;;;14.16;72.53;102032.56;5044638;28;9393;-65
2022/10/31 00:59:52;;;;;;;;;3.33;3.33;;;;;14.18;72.54;102027.78;5064118;28;9290;-65
2022/10/31 01:02:19;;;;;;;;;2.00;2.00;;;;;14.17;72.77;102028.81;5047957;28;9334;-65
2022/10/31 01:04:45;;;;;;;;;5.33;4.67;;;;;14.18;72.39;102038.63;5047212;28;9401;-65
2022/10/31 01:07:13;;;;;;;;;4.33;4.33;;;;;14.11;72.48;102043.97;5047428;28;9302;-66
2022/10/31 01:09:40;;;;;;;;;8.33;5.00;;;;;14.10;72.69;102040.44;5059246;28;9377;-65
2022/10/31 01:12:07;;;;;;;;;3.00;3.00;;;;;14.12;72.61;102042.09;5046119;28;9389;-65
2022/10/31 01:14:33;;;;;;;;;3.00;3.00;;;;;14.12;72.51;102039.38;5063302;28;9313;-66
2022/10/31 01:17:00;;;;;;;;;7.00;4.00;;;;;14.09;72.63;102035.19;5044446;28;9417;-65
2022/10/31 01:19:26;;;;;;;;;3.00;3.00;;;;;14.07;72.58;102032.66;5047691;28;9371;-65
2022/10/31 01:21:56;;;;;;;;;5.00;5.00;;;;;14.03;72.88;102031.38;5047654;28;10015;-66
2022/10/31 01:24:26;;;;;;;;;4.33;3.00;;;;;14.00;72.82;102029.03;5050060;28;9390;-65
2022/10/31 01:26:53;;;;;;;;;3.67;3.67;;;;;13.99;73.00;102029.22;5053215;28;9385;-66
2022/10/31 01:29:19;;;;;;;;;5.33;5.33;;;;;13.95;72.70;102028.75;5051091;28;9215;-66
2022/10/31 01:31:46;;;;;;;;;3.00;3.00;;;;;13.96;73.15;102016.91;5065812;28;9354;-66
2022/10/31 01:34:15;;;;;;;;;4.00;4.00;;;;;13.96;73.17;102011.47;5053122;28;10299;-66
2022/10/31 01:36:42;;;;;;;;;6.00;5.00;;;;;13.98;72.88;102009.44;5042581;28;9231;-66
2022/10/31 01:39:12;;;;;;;;;4.00;3.67;;;;;13.98;73.12;102017.56;5051186;28;10125;-65
2022/10/31 01:41:41;;;;;;;;;6.00;4.50;;;;;13.96;72.85;102026.88;5067797;28;10009;-65
2022/10/31 01:44:14;;;;;;;;;2.00;2.00;;;;;13.91;72.55;102016.63;5044477;28;9461;-65
2022/10/31 01:46:45;;;;;;;;;5.25;5.00;;;;;13.86;73.00;102010.94;5047432;28;9413;-65
2022/10/31 01:49:21;;;;;;;;;3.50;3.50;;;;;13.86;73.03;102005.53;5051746;28;9642;-68
2022/10/31 01:51:54;;;;;;;;;5.25;4.50;;;;;13.83;72.90;102006.72;5051928;28;9494;-65
2022/10/31 01:54:26;;;;;;;;;5.00;5.00;;;;;13.82;73.24;102004.22;5052608;28;9591;-64
2022/10/31 01:56:55;;;;;;;;;5.00;5.00;;;;;13.80;72.95;102003.56;5044470;28;9650;-64
2022/10/31 01:59:27;;;;;;;;;7.25;6.75;;;;;13.80;73.18;102009.81;5052501;28;9606;-66
2022/10/31 02:01:54;;;;;;;;;3.67;3.67;;;;;13.79;73.23;102004.59;5041907;28;9474;-65
2022/10/31 02:04:24;;;;;;;;;6.25;4.50;;;;;13.76;73.07;102003.09;5050918;28;9466;-65
2022/10/31 02:07:12;;;;;;;;;6.00;5.00;;;;;13.73;72.93;102006.19;5051889;28;9658;-66
2022/10/31 02:09:40;;;;;;;;;5.25;5.25;;;;;13.70;72.95;102006.56;5052009;28;9663;-66
2022/10/31 02:12:10;;;;;;;;;5.75;5.75;;;;;13.69;73.15;102006.72;5052218;28;9545;-65
2022/10/31 02:14:38;;;;;;;;;5.25;4.75;;;;;13.69;73.23;102001.31;5051224;28;9459;-65
2022/10/31 02:17:04;;;;;;;;;5.50;5.00;;;;;13.65;73.02;102000.00;5054345;28;9642;-64
2022/10/31 02:19:46;;;;;;;;;5.00;5.00;;;;;13.63;73.24;102007.47;5049870;28;9584;-66
2022/10/31 02:22:15;;;;;;;;;6.25;4.50;;;;;13.58;73.31;101994.53;5040594;28;9506;-65
2022/10/31 02:24:50;;;;;;;;;8.00;7.00;;;;;13.58;73.60;101999.94;5051193;28;9527;-65
2022/10/31 02:27:41;;;;;;;;;7.00;7.00;;;;;13.54;73.28;101991.34;5051320;28;9612;-66
2022/10/31 02:30:18;;;;;;;;;12.00;9.00;;;;;13.51;73.30;101998.97;5047609;28;10435;-64
2022/10/31 02:32:47;;;;;;;;;7.00;7.00;;;;;13.46;73.39;101998.72;5063486;28;9524;-67
2022/10/31 02:35:31;;;;;;;;;7.00;6.00;;;;;13.44;73.79;101998.88;5063375;28;10315;-67
2022/10/31 02:38:13;;;;;;;;;5.25;5.00;;;;;13.44;73.60;102008.84;5050243;28;9443;-67
2022/10/31 02:40:54;;;;;;;;;6.00;6.00;;;;;13.44;73.32;102004.28;5047145;28;9501;-66
2022/10/31 02:43:48;;;;;;;;;9.00;9.00;;;;;13.42;73.31;102002.81;5050675;28;9654;-66
2022/10/31 02:46:32;;;;;;;;;7.75;7.75;;;;;13.40;73.54;102002.13;5046111;28;9525;-66
2022/10/31 02:49:07;;;;;;;;;6.25;6.25;;;;;13.35;73.43;102000.00;5048629;28;9656;-65
2022/10/31 02:51:36;;;;;;;;;8.75;7.00;;;;;13.32;73.50;101994.94;5044560;28;9679;-66
2022/10/31 02:54:02;;;;;;;;;10.75;8.00;;;;;13.29;73.27;101998.88;5050261;28;9539;-67
2022/10/31 02:56:29;;;;;;;;;10.50;9.50;;;;;13.28;73.49;101999.03;5050491;28;9627;-66
2022/10/31 02:59:01;;;;;;;;;11.75;9.00;;;;;13.25;73.50;102004.84;5050328;28;9696;-67
2022/10/31 03:01:42;;;;;;;;;7.50;7.50;;;;;13.19;73.45;102000.94;5042022;28;9765;-66
2022/10/31 03:04:09;;;;;;;;;10.75;7.25;;;;;13.15;73.63;101998.78;5040199;28;9671;-66
2022/10/31 03:06:48;;;;;;;;;9.25;6.50;;;;;13.13;73.95;101999.00;5061264;28;10319;-67
2022/10/31 03:09:37;;;;;;;;;8.00;8.00;;;;;13.11;73.83;101996.44;5048469;28;9692;-67
2022/10/31 03:12:07;;;;;;;;;8.00;7.25;;;;;13.09;73.63;101997.69;5046793;28;9631;-66
2022/10/31 03:14:49;;;;;;;;;4.75;4.75;;;;;13.07;73.89;101997.00;5050228;28;9879;-68
2022/10/31 03:17:26;;;;;;;;;10.00;10.00;;;;;13.06;73.65;102006.16;5049212;28;9701;-68
2022/10/31 03:19:56;;;;;;;;;12.00;12.00;;;;;13.02;73.67;102004.81;5048267;28;9687;-67
2022/10/31 03:22:29;;;;;;;;;11.75;11.50;;;;;13.00;73.88;102013.09;5062052;28;9811;-67
2022/10/31 03:24:59;;;;;;;;;9.00;8.75;;;;;13.00;73.94;102001.44;5047777;28;10385;-67
2022/10/31 03:27:30;;;;;;;;;9.75;8.00;;;;;13.03;74.08;102001.94;5049360;28;9732;-67
2022/10/31 03:30:02;;;;;;;;;9.00;9.00;;;;;13.06;74.27;101995.34;5065396;28;9773;-69
2022/10/31 03:32:42;;;;;;;;;15.00;13.75;;;;;13.04;74.00;102000.91;5048724;28;11494;-69
2022/10/31 03:35:14;;;;;;;;;13.00;11.00;;;;;13.06;74.14;101996.16;5049995;28;9941;-67
2022/10/31 03:37:41;;;;;;;;;12.50;12.50;;;;;13.08;74.06;101995.97;5046800;28;9779;-66
2022/10/31 03:40:15;;;;;;;;;17.50;11.50;;;;;13.09;74.36;101994.97;5049319;28;10537;-67
2022/10/31 03:42:50;;;;;;;;;15.50;13.00;;;;;13.09;74.16;102001.22;5026548;28;10007;-68
2022/10/31 03:45:24;;;;;;;;;16.50;15.25;;;;;13.08;74.13;102001.38;5061713;28;9861;-68
2022/10/31 03:47:52;;;;;;;;;17.50;12.50;;;;;13.05;73.97;102010.72;5064860;28;9914;-68
2022/10/31 03:50:21;;;;;;;;;15.25;15.25;;;;;13.04;74.21;102009.00;5045936;28;9927;-68
2022/10/31 03:52:59;;;;;;;;;16.25;15.50;;;;;13.02;74.13;102016.47;5047972;28;9911;-67
2022/10/31 03:55:34;;;;;;;;;15.25;14.00;;;;;13.01;74.14;102019.38;5049197;28;9930;-68
2022/10/31 03:58:11;;;;;;;;;14.75;12.75;;;;;12.99;74.14;102013.28;5049055;28;9921;-67
2022/10/31 04:00:43;;;;;;;;;15.25;13.75;;;;;13.00;74.32;102012.25;5049669;28;9940;-67
2022/10/31 04:03:14;;;;;;;;;18.50;16.25;;;;;12.97;74.08;102018.88;5057859;28;10044;-67
2022/10/31 04:05:46;;;;;;;;;13.75;13.75;;;;;12.97;74.29;102018.06;5065205;28;9906;-67
2022/10/31 04:08:17;;;;;;;;;16.00;13.25;;;;;12.97;74.37;102008.06;5048348;28;10006;-67
2022/10/31 04:10:48;;;;;;;;;14.50;13.75;;;;;12.96;74.22;102005.53;5064697;28;9861;-68
2022/10/31 04:13:25;;;;;;;;;19.25;18.00;;;;;12.96;74.39;102010.94;5050301;28;9983;-67
2022/10/31 04:16:01;;;;;;;;;13.00;11.25;;;;;12.96;74.31;102010.94;5041558;28;10281;-68
2022/10/31 04:18:27;;;;;;;;;16.25;14.25;;;;;12.96;74.47;102014.47;5049061;28;9838;-67
2022/10/31 04:21:06;;;;;;;;;15.25;11.25;;;;;12.96;74.51;102010.94;5064311;28;10139;-67
2022/10/31 04:23:34;;;;;;;;;15.75;13.00;;;;;12.97;74.66;102013.47;5044199;28;9937;-65
2022/10/31 04:26:10;;;;;;;;;11.50;11.50;;;;;12.99;74.62;102007.88;5047152;28;10033;-68
2022/10/31 04:28:37;;;;;;;;;16.50;15.25;;;;;12.97;74.61;102010.78;5049724;28;9853;-67
2022/10/31 04:31:04;;;;;;;;;20.50;19.00;;;;;12.94;74.56;102011.13;5045356;28;10675;-66
2022/10/31 04:33:34;;;;;;;;;15.25;15.25;;;;;12.95;74.48;102014.69;5058155;28;10901;-67
2022/10/31 04:36:01;;;;;;;;;16.75;16.50;;;;;12.93;74.57;102008.63;5049476;28;9935;-68
2022/10/31 04:38:27;;;;;;;;;16.00;14.00;;;;;12.92;74.69;102015.88;5043676;28;10228;-68
2022/10/31 04:40:54;;;;;;;;;19.00;16.75;;;;;12.92;74.84;102009.63;5063949;28;10161;-68
2022/10/31 04:43:48;;;;;;;;;20.25;17.50;;;;;12.90;74.76;102011.69;5049619;28;10064;-66
2022/10/31 04:46:15;;;;;;;;;20.50;17.00;;;;;12.89;74.93;102015.41;5048476;28;10065;-67
2022/10/31 04:48:42;;;;;;;;;18.75;16.75;;;;;12.89;74.96;102010.00;5044722;28;10057;-66
2022/10/31 04:51:10;;;;;;;;;20.75;18.00;;;;;12.87;74.92;102013.72;5044107;28;10105;-68
2022/10/31 04:53:36;;;;;;;;;22.00;20.75;;;;;12.88;74.98;102014.53;5046194;28;10800;-67
2022/10/31 04:56:28;;;;;;;;;16.50;16.50;;;;;12.89;75.05;102010.00;5049231;28;9987;-68
2022/10/31 04:58:58;;;;;;;;;17.25;14.00;;;;;12.91;75.18;102019.59;5048081;28;10102;-68
2022/10/31 05:01:27;;;;;;;;;15.50;15.50;;;;;12.90;74.90;102022.50;5039486;28;10096;-67
2022/10/31 05:03:55;;;;;;;;;22.75;19.00;;;;;12.88;74.93;102022.66;5041657;28;9948;-67
2022/10/31 05:06:22;;;;;;;;;20.00;19.25;;;;;12.86;75.13;102014.75;5042266;28;10015;-68
2022/10/31 05:08:48;;;;;;;;;17.75;17.00;;;;;12.84;74.92;102008.69;5047467;28;10175;-68
2022/10/31 05:11:15;;;;;;;;;21.50;19.25;;;;;12.83;75.02;101998.03;5047901;28;10129;-67
2022/10/31 05:13:43;;;;;;;;;19.50;18.75;;;;;12.85;74.98;102007.66;5050306;28;10304;-66
2022/10/31 05:16:12;;;;;;;;;23.25;17.75;;;;;12.83;74.92;101993.47;5046103;28;10193;-67
2022/10/31 05:18:57;;;;;;;;;16.00;16.00;;;;;12.82;74.85;101994.50;5047405;28;9932;-67
2022/10/31 05:22:02;;;;;;;;;24.50;20.25;;;;;12.80;75.17;101996.56;5005846;28;10765;-67
2022/10/31 05:24:31;;;;;;;;;22.50;20.75;;;;;12.81;75.14;101994.69;5022525;28;10074;-66
2022/10/31 05:26:57;;;;;;;;;21.00;19.75;;;;;12.79;75.07;101991.31;5025119;28;10155;-66
2022/10/31 05:29:24;;;;;;;;;24.50;20.50;;;;;12.77;75.20;101991.50;5047764;28;10177;-67
2022/10/31 05:31:51;;;;;;;;;23.50;21.00;;;;;12.76;75.22;101986.28;5047080;28;10059;-66
2022/10/31 05:34:37;;;;;;;;;18.50;18.50;;;;;12.74;74.98;101982.91;5048855;28;10296;-66
2022/10/31 05:37:15;;;;;;;;;23.75;20.50;;;;;12.74;75.17;101985.63;5043526;28;10011;-66
2022/10/31 05:39:42;;;;;;;;;21.50;21.00;;;;;12.71;75.03;101986.81;5047016;28;10188;-67
2022/10/31 05:42:13;;;;;;;;;24.50;21.50;;;;;12.69;75.00;101978.06;5048038;28;10146;-65
2022/10/31 05:44:40;;;;;;;;;18.00;17.00;;;;;12.67;75.10;101981.97;5039659;28;10327;-67
2022/10/31 05:47:22;;;;;;;;;23.50;20.50;;;;;12.65;74.95;101992.13;5047428;28;10199;-66
2022/10/31 05:49:54;;;;;;;;;19.00;18.25;;;;;12.63;75.08;101985.00;5049216;28;10977;-67
2022/10/31 05:52:45;;;;;;;;;19.50;17.25;;;;;12.60;74.94;101974.59;5037281;28;10029;-66
2022/10/31 05:55:23;;;;;;;;;20.75;19.50;;;;;12.58;74.91;101971.22;5045626;28;10075;-66
2022/10/31 05:58:02;;;;;;;;;25.25;23.75;;;;;12.53;74.84;101981.72;5064446;28;11098;-67
2022/10/31 06:00:30;;;;;;;;;22.25;19.50;;;;;12.48;74.69;101970.63;5047575;28;10246;-66
2022/10/31 06:03:06;;;;;;;;;24.50;21.75;;;;;12.45;75.00;101973.66;5047339;28;10993;-67
2022/10/31 06:05:58;;;;;;;;;24.25;22.25;;;;;12.42;74.91;101965.09;5041615;28;10223;-67
2022/10/31 06:08:30;;;;;;;;;21.00;19.25;;;;;12.42;74.92;101967.78;5039589;28;10464;-66
2022/10/31 06:11:01;;;;;;;;;21.50;18.00;;;;;12.42;75.15;101962.38;5050221;28;10178;-67
2022/10/31 06:13:47;;;;;;;;;19.75;18.75;;;;;12.38;74.86;101968.13;5051929;28;10090;-66
2022/10/31 06:16:28;;;;;;;;;21.75;20.00;;;;;12.35;74.83;101970.34;5062894;28;10018;-65
2022/10/31 06:18:59;;;;;;;;;20.75;20.75;;;;;12.31;75.07;101967.16;5063651;28;10664;-66
2022/10/31 06:21:27;;;;;;;;;21.50;21.50;;;;;12.27;75.11;101957.72;5043093;28;10181;-66
2022/10/31 06:23:53;;;;;;;;;26.25;22.50;;;;;12.24;74.93;101960.81;5050795;28;10205;-67
2022/10/31 06:26:42;;;;;;;;;22.25;22.00;;;;;12.20;74.86;101961.34;5050977;28;10192;-66
2022/10/31 06:29:09;;;;;;;;;22.00;19.75;;;;;12.16;74.96;101963.56;5047256;28;10104;-65
2022/10/31 06:31:59;;;;;;;;;27.75;23.75;;;;;12.10;75.09;101969.66;5050638;28;10271;-66
2022/10/31 06:34:27;;;;;;;;;21.75;18.00;;;;;12.08;75.12;101969.00;5050583;28;10408;-66
2022/10/31 06:36:53;;;;;;;;;20.00;19.50;;;;;12.05;74.91;101978.28;5046759;28;10438;-66
2022/10/31 06:39:23;;;;;;;;;20.25;18.50;;;;;12.03;75.16;101976.75;5054065;28;10149;-65
2022/10/31 06:41:50;;;;;;;;;20.25;20.25;;;;;12.03;75.23;101974.94;5066398;28;10888;-66
2022/10/31 06:44:19;;;;;;;;;21.25;20.00;;;;;12.04;75.19;101978.47;5050168;28;10138;-66
2022/10/31 06:46:54;;;;;;;;;23.50;18.50;;;;;12.03;75.21;101983.03;5050097;28;10108;-66
2022/10/31 06:49:39;;;;;;;;;22.00;21.00;;;;;12.04;75.22;101983.88;5043036;28;10319;-66
2022/10/31 06:52:13;;;;;;;;;17.50;17.50;;;;;12.05;75.37;101975.59;5046247;28;10188;-66
2022/10/31 06:54:40;;;;;;;;;20.75;20.75;;;;;12.03;75.36;101971.38;5050466;28;10166;-67
2022/10/31 06:57:07;;;;;;;;;24.50;20.75;;;;;12.04;75.32;101981.16;5049892;28;10188;-66
2022/10/31 06:59:33;;;;;;;;;23.00;21.00;;;;;12.05;75.27;101983.69;5050794;28;10353;-66
2022/10/31 07:02:00;;;;;;;;;25.25;21.25;;;;;12.03;75.19;101979.47;5051052;28;10426;-65
2022/10/31 07:04:26;;;;;;;;;25.50;20.50;;;;;12.13;76.77;101986.34;5048053;28;10493;-67
2022/10/31 07:06:53;;;;;;;;;26.75;23.25;;;;;12.17;76.06;101986.81;5064413;28;10332;-66
2022/10/31 07:09:19;;;;;;;;;25.50;22.75;;;;;12.17;76.06;101986.81;5049829;28;10518;-65
2022/10/31 07:11:46;;;;;;;;;27.50;25.25;;;;;12.17;76.15;101986.81;5049694;28;10536;-65
2022/10/31 07:14:13;;;;;;;;;25.50;24.00;;;;;12.18;75.76;101987.66;5041060;28;10593;-67
2022/10/31 07:16:41;;;;;;;;;27.25;26.00;;;;;12.20;76.05;101991.88;5050605;28;10588;-66
2022/10/31 07:19:07;;;;;;;;;24.50;21.50;;;;;12.22;75.75;101999.78;5049229;28;10629;-66
2022/10/31 07:21:34;;;;;;;;;25.25;25.25;;;;;12.23;75.87;101993.38;5049494;28;10310;-65
2022/10/31 07:24:00;;;;;;;;;26.25;24.00;;;;;12.23;75.72;101994.19;5049482;28;10557;-64
2022/10/31 07:26:47;;;;;;;;;24.50;21.50;;;;;12.25;76.01;102000.28;5044734;28;10756;-66
2022/10/31 07:29:14;;;;;;;;;25.50;23.00;;;;;12.28;76.05;101999.94;5046663;28;10479;-66
2022/10/31 07:31:40;;;;;;;;;27.00;22.50;;;;;12.31;76.19;101996.03;5048613;28;10475;-66
2022/10/31 07:34:15;;;;;;;;;22.00;19.00;;;;;12.36;76.39;101999.06;5049881;28;10378;-64
2022/10/31 07:37:03;;;;;;;;;17.00;17.00;;;;;12.40;76.24;101997.69;5044948;28;11017;-65
2022/10/31 07:39:29;;;;;;;;;16.75;16.75;;;;;12.44;76.17;102000.88;5047523;28;9943;-65
2022/10/31 07:41:58;;;;;;;;;21.00;18.00;;;;;12.49;76.33;101996.59;5050632;28;10169;-65
2022/10/31 07:44:25;;;;;;;;;19.50;19.25;;;;;12.53;76.24;102003.31;5049394;28;10074;-66
2022/10/31 07:47:10;;;;;;;;;18.50;17.50;;;;;12.55;76.40;102009.38;5049058;28;10146;-66
2022/10/31 07:49:55;;;;;;;;;21.25;19.25;;;;;12.59;76.84;102007.16;5049906;28;10289;-65
2022/10/31 07:52:42;;;;;;;;;19.00;19.00;;;;;12.69;76.73;102013.19;5048417;28;10095;-65
2022/10/31 07:55:32;;;;;;;;;25.25;22.75;;;;;12.77;76.88;102015.81;5049989;28;10004;-65
2022/10/31 07:58:00;;;;;;;;;24.75;23.75;;;;;12.81;76.52;102019.84;5042123;28;10004;-66
2022/10/31 08:00:28;;;;;;;;;19.00;18.00;;;;;12.87;76.80;102019.13;5049027;28;10161;-66
2022/10/31 08:03:04;;;;;;;;;15.75;13.75;;;;;12.95;76.57;102009.28;5049981;28;10818;-65
2022/10/31 08:05:56;;;;;;;;;22.75;21.00;;;;;12.98;76.48;102012.44;5049554;28;9939;-67
2022/10/31 08:09:01;;;;;;;;;28.50;23.25;;;;;12.95;76.04;102023.63;5048366;28;10384;-66
2022/10/31 08:11:27;;;;;;;;;27.50;26.75;;;;;12.89;76.43;102012.72;5048203;28;10434;-65
2022/10/31 08:13:54;;;;;;;;;26.50;24.50;;;;;12.85;76.64;102017.63;5048583;28;10275;-66
2022/10/31 08:16:20;;;;;;;;;20.25;17.75;;;;;12.81;76.72;102019.84;5048428;28;10387;-65
2022/10/31 08:18:55;;;;;;;;;19.75;19.00;;;;;12.80;77.07;102014.59;5048580;28;9985;-67
2022/10/31 08:21:22;;;;;;;;;26.25;25.50;;;;;12.72;76.92;102009.25;5048573;28;11047;-66
2022/10/31 08:23:49;;;;;;;;;28.00;28.00;;;;;12.65;77.44;102011.88;5064240;28;10266;-66
2022/10/31 08:26:18;;;;;;;;;34.25;31.50;;;;;12.67;78.00;102012.50;5048602;28;10406;-66
2022/10/31 08:28:49;;;;;;;;;31.25;28.25;;;;;12.71;77.88;102008.44;5048406;28;10477;-66
2022/10/31 08:31:18;;;;;;;;;34.00;27.50;;;;;12.76;78.15;102008.75;5048054;28;10309;-65
2022/10/31 08:33:44;;;;;;;;;26.50;25.50;;;;;12.85;78.27;102006.81;5049192;28;10359;-65
2022/10/31 08:36:29;;;;;;;;;28.00;26.50;;;;;12.88;77.88;102009.13;5048016;28;10169;-66
2022/10/31 08:39:02;;;;;;;;;37.25;30.75;;;;;12.87;78.01;102010.16;5065071;28;10281;-66
2022/10/31 08:41:29;;;;;;;;;33.25;28.25;;;;;12.91;78.36;102013.34;5047845;28;10430;-66
2022/10/31 08:43:57;;;;;;;;;30.00;27.75;;;;;12.94;78.40;102013.84;5040594;28;10405;-66
2022/10/31 08:46:24;;;;;;;;;33.50;28.25;;;;;12.99;77.97;101999.78;5046995;28;11116;-65
2022/10/31 08:48:50;;;;;;;;;30.00;26.00;;;;;12.99;77.84;102000.63;5049457;28;10611;-66
2022/10/31 08:51:18;;;;;;;;;23.25;20.00;;;;;13.00;78.49;102012.25;5046066;28;10196;-66
2022/10/31 08:53:48;;;;;;;;;31.25;27.25;;;;;13.01;78.41;101993.19;5048121;28;10111;-66
2022/10/31 08:56:35;;;;;;;;;37.50;35.50;;;;;13.04;78.50;101992.78;5049499;28;10393;-66
2022/10/31 08:59:05;;;;;;;;;34.25;28.75;;;;;13.08;78.48;101991.44;5045166;28;10334;-66
2022/10/31 09:01:44;;;;;;;;;28.75;26.00;;;;;13.17;78.75;101999.47;5048051;28;10193;-66
2022/10/31 09:04:11;;;;;;;;;27.25;24.75;;;;;13.23;78.73;101994.19;5048087;28;10282;-65
2022/10/31 09:06:37;;;;;;;;;28.25;25.25;;;;;13.26;78.42;101991.13;5048193;28;10075;-66
2022/10/31 09:09:21;;;;;;;;;29.25;25.50;;;;;13.31;78.53;101986.00;5047644;28;10098;-67
2022/10/31 09:11:47;;;;;;;;;27.75;24.50;;;;;13.39;78.61;101976.13;5048640;28;10066;-67
2022/10/31 09:14:16;;;;;;;;;21.75;19.00;;;;;13.47;78.30;101979.56;5049270;28;11679;-66
2022/10/31 09:17:06;;;;;;;;;22.75;21.75;;;;;13.52;78.09;101981.72;5039588;28;9838;-66
2022/10/31 09:19:49;;;;;;;;;16.00;15.75;;;;;13.57;78.04;101982.00;5047692;28;10004;-66
2022/10/31 09:22:16;;;;;;;;;19.25;17.25;;;;;13.59;77.52;101974.53;5048047;28;9922;-65
2022/10/31 09:24:42;;;;;;;;;19.75;17.50;;;;;13.65;77.68;101981.91;5063390;28;9773;-66
2022/10/31 09:27:09;;;;;;;;;36.75;26.75;;;;;13.60;77.58;101982.47;5049438;28;9757;-66
2022/10/31 09:29:39;;;;;;;;;22.50;22.50;;;;;13.65;77.58;101973.78;5048131;28;10286;-66
2022/10/31 09:32:09;;;;;;;;;25.50;21.25;;;;;13.71;77.55;101975.75;5048270;28;9842;-66
2022/10/31 09:34:44;;;;;;;;;23.50;20.00;;;;;13.76;77.51;101970.63;5064757;28;9744;-66
2022/10/31 09:37:14;;;;;;;;;25.50;24.00;;;;;13.83;77.22;101965.31;5047829;28;9838;-66
2022/10/31 09:39:40;;;;;;;;;30.00;27.00;;;;;13.80;77.18;101952.97;5049246;28;10573;-66
2022/10/31 09:42:50;;;;;;;;;23.25;20.50;;;;;13.80;77.02;101949.44;5047880;28;10176;-66
2022/10/31 09:45:28;;;;;;;;;24.75;20.75;;;;;13.78;76.90;101949.63;5031387;28;9941;-65
2022/10/31 09:48:19;;;;;;;;;17.25;17.00;;;;;13.81;77.64;101943.84;5032047;28;9903;-66
2022/10/31 09:51:12;;;;;;;;;26.00;23.75;;;;;13.79;77.62;101931.53;5031478;28;9768;-67
2022/10/31 09:54:05;;;;;;;;;18.75;18.75;;;;;13.83;77.35;101944.47;5048612;28;10020;-66
2022/10/31 09:56:32;;;;;;;;;23.25;23.25;;;;;13.80;77.35;101960.25;5035524;28;9939;-66
2022/10/31 09:59:02;;;;;;;;;26.75;25.00;;;;;13.71;77.64;101946.00;5051676;28;10178;-66
2022/10/31 10:01:49;;;;;;;;;29.50;28.25;;;;;13.71;78.02;101951.41;5051454;28;10184;-65
2022/10/31 10:04:37;;;;;;;;;31.50;23.00;;;;;13.73;78.06;101943.09;5051674;28;10189;-68
2022/10/31 10:07:43;;;;;;;;;25.75;22.75;;;;;13.75;77.83;101941.88;5051748;28;9914;-68
2022/10/31 10:10:50;;;;;;;;;27.00;25.50;;;;;13.73;78.29;101933.13;5051541;28;9945;-67
2022/10/31 10:13:45;;;;;;;;;24.25;22.25;;;;;13.77;78.31;101934.44;5052935;28;10115;-66
2022/10/31 10:16:33;;;;;;;;;31.25;29.50;;;;;13.74;78.16;101929.38;5052794;28;9942;-66
2022/10/31 10:19:20;;;;;;;;;31.50;27.00;;;;;13.76;78.36;101932.72;5052624;28;10247;-66
2022/10/31 10:22:20;;;;;;;;;28.50;23.25;;;;;13.82;78.56;101934.69;5052802;28;10086;-66
2022/10/31 10:25:01;;;;;;;;;22.25;20.50;;;;;13.87;78.36;101926.00;5027043;28;10617;-66
2022/10/31 10:27:37;;;;;;;;;23.25;18.25;;;;;13.96;78.86;101924.03;5051288;28;9914;-67
2022/10/31 10:30:12;;;;;;;;;27.00;26.25;;;;;14.03;78.70;101919.53;5052336;28;9908;-66
2022/10/31 10:32:47;;;;;;;;;28.75;27.00;;;;;14.08;78.60;101911.66;5052319;28;10077;-66
2022/10/31 10:35:29;;;;;;;;;25.50;25.00;;;;;14.17;78.35;101902.38;5052524;28;10047;-67
2022/10/31 10:38:02;;;;;;;;;29.25;21.25;;;;;14.20;78.37;101902.00;5051295;28;10117;-67
2022/10/31 10:40:29;;;;;;;;;27.75;21.50;;;;;14.26;78.57;101894.97;5052038;28;9992;-67
2022/10/31 10:49:00;;;;;;;;;28.50;26.25;;;;;14.40;78.22;101877.00;5052227;28;9923;-68
2022/10/31 10:51:52;;;;;;;;;21.00;20.75;;;;;14.43;78.14;101873.91;5051598;28;10058;-67
2022/10/31 10:55:02;;;;;;;;;24.00;23.00;;;;;14.45;77.83;101867.25;5051768;28;9862;-66
2022/10/31 10:57:34;;;;;;;;;31.75;30.25;;;;;14.45;77.96;101861.00;5051249;28;10710;-67
2022/10/31 11:00:22;;;;;;;;;30.25;25.50;;;;;14.44;78.04;101852.03;5051810;28;10087;-65
2022/10/31 11:02:49;;;;;;;;;21.50;18.75;;;;;14.48;77.99;101841.66;5051928;28;10099;-67
2022/10/31 11:05:38;;;;;;;;;22.25;21.00;;;;;14.50;76.88;101837.75;5051749;28;9741;-68
2022/10/31 11:08:06;;;;;;;;;21.00;17.25;;;;;14.48;76.88;101836.22;5051664;28;9712;-67
2022/10/31 11:10:33;;;;;;;;;15.00;13.00;;;;;14.57;76.57;101830.50;5051267;28;9541;-66
2022/10/31 11:13:11;;;;;;;;;18.25;17.75;;;;;14.62;76.56;101827.19;5051476;28;9558;-67
2022/10/31 11:16:10;;;;;;;;;14.75;13.50;;;;;14.71;76.01;101823.31;5047928;28;9688;-67
2022/10/31 11:18:44;;;;;;;;;17.00;15.00;;;;;14.84;75.71;101812.56;5051270;28;9453;-67
2022/10/31 11:21:33;;;;;;;;;16.50;15.00;;;;;14.89;74.70;101809.25;5051337;28;9493;-66
2022/10/31 11:24:12;;;;;;;;;18.75;17.00;;;;;14.94;74.76;101812.19;5051345;28;9538;-66
2022/10/31 11:26:40;;;;;;;;;14.00;12.25;;;;;14.98;74.58;101809.91;5066750;28;9507;-66
2022/10/31 11:29:20;;;;;;;;;12.75;11.25;;;;;14.95;74.30;101804.88;5049887;28;10226;-66
2022/10/31 11:31:51;;;;;;;;;12.50;11.25;;;;;14.93;73.90;101796.13;5051400;28;10222;-65
2022/10/31 11:34:31;;;;;;;;;13.00;12.50;;;;;14.94;74.51;101800.50;5051072;28;9639;-66
2022/10/31 11:37:09;;;;;;;;;15.50;15.50;;;;;14.96;74.35;101803.88;5051141;28;9451;-67
2022/10/31 11:39:41;;;;;;;;;13.75;13.00;;;;;15.02;74.21;101806.59;5050581;28;9681;-66
2022/10/31 11:42:08;;;;;;;;;16.00;12.25;;;;;15.06;74.29;101805.16;5050621;28;9596;-67
2022/10/31 11:44:34;;;;;;;;;16.75;12.75;;;;;15.08;74.18;101803.09;5050639;28;9586;-66
2022/10/31 11:47:05;;;;;;;;;12.25;11.75;;;;;15.15;74.07;101795.00;5049787;28;10261;-65
2022/10/31 11:49:39;;;;;;;;;10.75;10.75;;;;;15.22;74.06;101793.16;5050855;28;9517;-67
2022/10/31 11:52:25;;;;;;;;;15.00;13.00;;;;;15.23;73.99;101788.56;5051286;28;9445;-68